首页
METAR-TAF:

METAR-TAF

机场 :

中央公園

纽约, 紐約州, 美国

纬度: 40-47-00N, 经度: 073-58-00W, 海拔: 47米

当前天气观测

该预报发布于17分钟前的21:27 UTC
风速4节,风向东南
温度 24°C
湿度 94%
气压 1000 hPa
能見度: 4.0公里
散云层高于800英尺
多云层高于3800英尺
多云层高于4900英尺
轻雾

METAR: KNYC 202127Z AUTO 14004KT 2 1/2SM BR SCT008 BKN038 BKN049 24/23 A2952 RMK AO2 RAE14 P0002 T02390228 $

时间: 17:44 (21:44 UTC)


TAF: 丢失

超过4000个机场的气象观测和天气预报(METAR&TAF报告)。

可查询的气象台以黄色和红色小点在地图上表示。

将鼠标移到小点上方,可查看气象台名称。

然后点击查看天气观测和预报。

如需切换地图:点击带黑十字的绿色按钮放大地图;点击带横线的绿色按钮缩小地图;或者点击绿色箭头查看邻近地区的地图。


METAR-TAF: